createdAt,value
2022-11-04T00:01:50.818Z,99.99
2022-11-04T00:04:22.726Z,99.99
2022-11-04T00:06:50.883Z,99.99
2022-11-04T00:09:22.494Z,99.99
2022-11-04T00:12:08.598Z,99.99
2022-11-04T00:14:38.604Z,99.99
2022-11-04T00:17:22.864Z,99.99
2022-11-04T00:20:12.233Z,99.99
2022-11-04T00:22:59.457Z,99.99
2022-11-04T00:25:46.397Z,99.99
2022-11-04T00:28:34.812Z,99.99
2022-11-04T00:31:19.656Z,99.99
2022-11-04T00:33:48.757Z,99.99
2022-11-04T00:36:18.262Z,99.99
2022-11-04T00:38:47.144Z,99.99
2022-11-04T00:41:30.354Z,99.99
2022-11-04T00:44:01.215Z,99.99
2022-11-04T00:46:30.659Z,99.99
2022-11-04T00:48:58.823Z,99.99
2022-11-04T00:51:29.347Z,99.99
2022-11-04T00:53:58.173Z,99.99
2022-11-04T00:56:26.351Z,99.99
2022-11-04T00:58:54.584Z,99.99
2022-11-04T01:01:22.574Z,99.99
2022-11-04T01:03:53.349Z,99.99
2022-11-04T01:06:23.069Z,99.99
2022-11-04T01:08:57.327Z,99.99
2022-11-04T01:11:26.106Z,99.99
2022-11-04T01:13:54.036Z,99.99
2022-11-04T01:16:23.945Z,99.99
2022-11-04T01:18:51.869Z,99.99
2022-11-04T01:21:21.149Z,99.99
2022-11-04T01:23:49.180Z,99.99
2022-11-04T01:26:21.763Z,99.99
2022-11-04T01:28:50.229Z,99.99
2022-11-04T01:31:22.480Z,99.99
2022-11-04T01:33:51.413Z,99.99
2022-11-04T01:36:19.835Z,99.99
2022-11-04T01:38:48.789Z,99.99
2022-11-04T01:41:21.423Z,99.99
2022-11-04T01:43:52.098Z,99.99
2022-11-04T01:46:32.826Z,99.99
2022-11-04T01:49:06.005Z,99.99
2022-11-04T01:51:39.340Z,99.99
2022-11-04T01:54:09.949Z,99.99
2022-11-04T01:56:41.676Z,99.99
2022-11-04T01:59:15.374Z,99.99
2022-11-04T02:01:44.324Z,99.99
2022-11-04T02:04:28.694Z,99.99
2022-11-04T02:06:59.123Z,99.99
2022-11-04T02:09:31.052Z,99.99
2022-11-04T02:12:18.116Z,99.99
2022-11-04T02:14:49.474Z,99.99
2022-11-04T02:17:31.000Z,99.99
2022-11-04T02:20:13.265Z,99.99
2022-11-04T02:23:19.577Z,99.99
2022-11-04T02:26:21.073Z,99.99
2022-11-04T02:29:17.218Z,99.99
2022-11-04T02:31:54.066Z,99.99
2022-11-04T02:34:28.927Z,99.99
2022-11-04T02:37:05.062Z,99.99
2022-11-04T02:39:38.397Z,99.99
2022-11-04T02:42:14.323Z,99.99
2022-11-04T02:44:50.093Z,99.99
2022-11-04T02:47:23.585Z,99.99
2022-11-04T02:49:56.795Z,99.99
2022-11-04T02:52:32.468Z,99.87
2022-11-04T02:55:03.293Z,99.99
2022-11-04T02:57:36.558Z,99.48
2022-11-04T03:00:08.164Z,99.85
2022-11-04T03:02:41.684Z,99.99
2022-11-04T03:05:14.266Z,99.91
2022-11-04T03:07:45.754Z,99.99
2022-11-04T03:10:17.321Z,99.99
2022-11-04T03:12:51.523Z,99.99
2022-11-04T03:15:25.798Z,99.99
2022-11-04T03:18:01.944Z,99.99
2022-11-04T03:20:31.748Z,99.99
2022-11-04T03:23:01.051Z,99.75
2022-11-04T03:25:35.174Z,99.99
2022-11-04T03:28:08.060Z,99.83
2022-11-04T03:30:41.665Z,99.46
2022-11-04T03:33:18.405Z,99.72
2022-11-04T03:35:47.295Z,99.40
2022-11-04T03:38:15.327Z,99.19
2022-11-04T03:40:44.342Z,99.10
2022-11-04T03:43:16.126Z,99.54
2022-11-04T03:45:47.006Z,99.59
2022-11-04T03:48:16.124Z,99.66
2022-11-04T03:50:48.011Z,99.15
2022-11-04T03:53:20.078Z,99.42
2022-11-04T03:56:05.277Z,99.36
2022-11-04T03:58:44.730Z,99.58
2022-11-04T04:01:27.492Z,99.11
2022-11-04T04:04:01.569Z,99.41
2022-11-04T04:06:34.899Z,99.99
2022-11-04T04:09:10.462Z,99.99
2022-11-04T04:11:44.912Z,99.99
2022-11-04T04:14:39.150Z,99.99
2022-11-04T04:17:15.738Z,99.99
2022-11-04T04:19:47.415Z,99.99
2022-11-04T04:22:20.514Z,99.99
2022-11-04T04:25:08.863Z,99.98
2022-11-04T04:27:38.734Z,99.92
2022-11-04T04:30:09.211Z,99.37
2022-11-04T04:32:43.425Z,99.24
2022-11-04T04:35:29.870Z,99.14
2022-11-04T04:38:21.726Z,99.24
2022-11-04T04:41:12.570Z,99.31
2022-11-04T04:44:01.694Z,99.72
2022-11-04T04:46:30.749Z,99.97
2022-11-04T04:49:07.273Z,99.55
2022-11-04T04:51:37.665Z,99.38
2022-11-04T04:54:06.070Z,98.76
2022-11-04T04:56:34.451Z,98.41
2022-11-04T04:59:02.511Z,97.67
2022-11-04T05:01:31.044Z,98.35
2022-11-04T05:03:59.373Z,97.68
2022-11-04T05:06:28.624Z,97.95
2022-11-04T05:08:57.482Z,97.74
2022-11-04T05:11:27.223Z,98.33
2022-11-04T05:13:56.561Z,98.48
2022-11-04T05:16:24.435Z,97.94
2022-11-04T05:18:53.381Z,97.30
2022-11-04T05:21:21.319Z,97.20
2022-11-04T05:23:51.566Z,97.11
2022-11-04T05:26:19.760Z,97.41
2022-11-04T05:28:47.682Z,96.90
2022-11-04T05:31:16.333Z,97.37
2022-11-04T05:33:44.284Z,97.13
2022-11-04T05:36:15.732Z,97.55
2022-11-04T05:38:44.400Z,97.07
2022-11-04T05:41:26.156Z,98.03
2022-11-04T05:43:54.696Z,97.83
2022-11-04T05:46:22.798Z,97.27
2022-11-04T05:48:51.844Z,96.88
2022-11-04T05:51:22.205Z,97.16
2022-11-04T05:53:51.273Z,97.71
2022-11-04T05:56:21.452Z,97.72
2022-11-04T05:58:49.516Z,98.31
2022-11-04T06:01:30.624Z,97.57
2022-11-04T06:03:59.976Z,97.91
2022-11-04T06:06:32.036Z,98.13
2022-11-04T06:09:00.729Z,97.86
2022-11-04T06:11:32.367Z,98.13
2022-11-04T06:14:00.686Z,98.06
2022-11-04T06:16:28.583Z,98.08
2022-11-04T06:19:01.515Z,98.41
2022-11-04T06:21:34.562Z,98.24
2022-11-04T06:24:03.436Z,97.96
2022-11-04T06:26:32.738Z,98.25
2022-11-04T06:29:00.598Z,97.70
2022-11-04T06:31:29.398Z,97.86
2022-11-04T06:33:57.253Z,98.54
2022-11-04T06:36:25.988Z,98.37
2022-11-04T06:38:54.792Z,98.94
2022-11-04T06:41:25.405Z,98.45
2022-11-04T06:43:54.630Z,98.73
2022-11-04T06:46:28.873Z,98.74
2022-11-04T06:48:57.519Z,98.98
2022-11-04T06:51:25.972Z,98.74
2022-11-04T06:53:54.813Z,99.69
2022-11-04T06:56:22.859Z,99.39
2022-11-04T06:58:52.410Z,99.68
2022-11-04T07:01:23.681Z,99.02
2022-11-04T07:03:55.533Z,98.78
2022-11-04T07:06:24.428Z,99.15
2022-11-04T07:08:53.577Z,99.04
2022-11-04T07:11:23.760Z,98.79
2022-11-04T07:13:51.944Z,98.51
2022-11-04T07:16:22.148Z,98.70
2022-11-04T07:18:51.831Z,98.50
2022-11-04T07:21:19.776Z,98.67
2022-11-04T07:23:48.733Z,98.43
2022-11-04T07:26:16.743Z,98.49
2022-11-04T07:28:44.911Z,98.30
2022-11-04T07:31:13.967Z,98.38
2022-11-04T07:33:43.846Z,98.36
2022-11-04T07:36:14.122Z,98.37
2022-11-04T07:38:42.053Z,98.41
2022-11-04T07:41:10.693Z,98.40
2022-11-04T07:43:38.695Z,98.51
2022-11-04T07:46:08.956Z,99.57
2022-11-04T07:48:38.650Z,98.83
2022-11-04T07:51:09.956Z,98.55
2022-11-04T07:53:39.137Z,98.19
2022-11-04T07:56:08.812Z,97.77
2022-11-04T07:58:36.759Z,97.59
2022-11-04T08:01:08.657Z,97.07
2022-11-04T08:03:37.258Z,97.07
2022-11-04T08:06:08.979Z,97.19
2022-11-04T08:08:37.457Z,97.85
2022-11-04T08:11:12.742Z,97.44
2022-11-04T08:13:42.778Z,97.16
2022-11-04T08:16:16.378Z,97.07
2022-11-04T08:18:45.514Z,97.39
2022-11-04T08:21:15.071Z,97.24
2022-11-04T08:23:43.665Z,97.17
2022-11-04T08:26:12.869Z,97.14
2022-11-04T08:28:41.045Z,98.18
2022-11-04T08:31:12.952Z,97.87
2022-11-04T08:33:41.998Z,97.16
2022-11-04T08:36:12.276Z,97.49
2022-11-04T08:38:42.563Z,97.10
2022-11-04T08:41:11.699Z,96.93
2022-11-04T08:43:39.788Z,96.31
2022-11-04T08:46:11.035Z,96.16
2022-11-04T08:48:40.054Z,96.33
2022-11-04T08:51:12.845Z,95.82
2022-11-04T08:53:42.192Z,96.12
2022-11-04T08:56:15.659Z,96.20
2022-11-04T08:58:44.309Z,96.22
2022-11-04T09:01:12.901Z,94.81
2022-11-04T09:03:42.400Z,93.75
2022-11-04T09:06:12.590Z,93.36
2022-11-04T09:08:43.401Z,93.45
2022-11-04T09:11:17.311Z,92.62
2022-11-04T09:13:45.423Z,92.75
2022-11-04T09:16:15.061Z,91.91
2022-11-04T09:18:43.913Z,91.21
2022-11-04T09:21:12.582Z,91.33
2022-11-04T09:23:42.812Z,91.15
2022-11-04T09:26:13.926Z,91.50
2022-11-04T09:28:42.174Z,91.01
2022-11-04T09:31:12.353Z,91.88
2022-11-04T09:33:41.351Z,90.30
2022-11-04T09:36:10.296Z,90.37
2022-11-04T09:38:39.559Z,90.69
2022-11-04T09:41:30.095Z,90.88
2022-11-04T09:44:10.563Z,91.14
2022-11-04T09:46:40.487Z,91.07
2022-11-04T09:49:12.996Z,90.65
2022-11-04T09:51:58.207Z,90.02
2022-11-04T09:54:46.827Z,89.90
2022-11-04T09:57:20.728Z,90.95
2022-11-04T09:59:49.944Z,90.06
2022-11-04T10:02:35.658Z,89.61
2022-11-04T10:05:15.976Z,90.18
2022-11-04T10:08:03.330Z,90.85
2022-11-04T10:10:38.770Z,90.41
2022-11-04T10:13:24.155Z,89.38
2022-11-04T10:16:04.542Z,88.33
2022-11-04T10:18:49.422Z,88.54
2022-11-04T10:21:29.362Z,88.95
2022-11-04T10:24:14.340Z,88.85
2022-11-04T10:26:46.514Z,89.15
2022-11-04T10:29:30.564Z,88.75
2022-11-04T10:32:00.990Z,88.86
2022-11-04T10:34:37.193Z,89.55
2022-11-04T10:37:05.610Z,90.10
2022-11-04T10:39:38.790Z,90.23
2022-11-04T10:42:07.233Z,90.55
2022-11-04T10:44:38.773Z,91.27
2022-11-04T10:47:17.062Z,90.55
2022-11-04T10:50:28.746Z,91.03
2022-11-04T10:53:11.242Z,91.17
2022-11-04T10:55:46.738Z,91.17
2022-11-04T10:58:21.021Z,90.47
2022-11-04T11:00:52.038Z,90.69
2022-11-04T11:03:26.255Z,89.81
2022-11-04T11:05:55.114Z,89.48
2022-11-04T11:08:31.718Z,89.97
2022-11-04T11:11:02.199Z,89.88
2022-11-04T11:13:36.987Z,89.47
2022-11-04T11:16:10.672Z,89.34
2022-11-04T11:18:39.541Z,89.48
2022-11-04T11:21:14.473Z,89.68
2022-11-04T11:23:47.184Z,88.91
2022-11-04T11:26:19.221Z,89.54
2022-11-04T11:28:59.212Z,89.80
2022-11-04T11:31:37.509Z,89.72
2022-11-04T11:34:08.243Z,88.90
2022-11-04T11:36:39.224Z,88.75
2022-11-04T11:39:16.458Z,87.68
2022-11-04T11:41:55.761Z,88.96
2022-11-04T11:44:31.557Z,89.10
2022-11-04T11:47:04.322Z,89.97
2022-11-04T11:49:34.518Z,90.42
2022-11-04T11:52:28.954Z,89.90
2022-11-04T11:55:04.988Z,89.50
2022-11-04T11:57:45.099Z,89.41
2022-11-04T12:03:16.410Z,89.85
2022-11-04T12:06:20.982Z,89.52
2022-11-04T12:09:16.700Z,88.46
2022-11-04T12:11:55.997Z,89.03
2022-11-04T12:14:40.864Z,88.93
2022-11-04T12:17:23.627Z,88.83
2022-11-04T12:20:10.194Z,88.61
2022-11-04T12:22:48.863Z,88.29
2022-11-04T12:25:24.528Z,88.32
2022-11-04T12:27:59.188Z,88.41
2022-11-04T12:30:33.891Z,88.81
2022-11-04T12:33:19.339Z,89.76
2022-11-04T12:35:59.072Z,89.91
2022-11-04T12:38:55.649Z,90.17
2022-11-04T12:41:58.897Z,90.48
2022-11-04T12:44:32.379Z,87.57
2022-11-04T12:47:14.571Z,89.32
2022-11-04T12:49:58.429Z,86.66
2022-11-04T12:52:39.367Z,83.31
2022-11-04T12:55:25.677Z,80.31
2022-11-04T12:58:00.097Z,78.18
2022-11-04T13:00:31.987Z,83.16
2022-11-04T13:03:05.578Z,83.31
2022-11-04T13:05:44.366Z,83.27
2022-11-04T13:08:20.223Z,83.65
2022-11-04T13:10:55.003Z,81.26
2022-11-04T13:13:27.811Z,80.48
2022-11-04T13:15:59.584Z,78.45
2022-11-04T13:18:32.868Z,76.89
2022-11-04T13:21:06.861Z,76.68
2022-11-04T13:23:53.730Z,80.36
2022-11-04T13:26:22.039Z,82.21
2022-11-04T13:29:04.534Z,83.21
2022-11-04T13:31:48.166Z,82.84
2022-11-04T13:34:27.405Z,84.90
2022-11-04T13:37:06.962Z,85.43
2022-11-04T13:39:42.157Z,84.34
2022-11-04T13:42:38.941Z,83.34
2022-11-04T13:45:12.766Z,81.93
2022-11-04T13:47:46.984Z,82.99
2022-11-04T13:50:34.188Z,81.06
2022-11-04T13:53:03.696Z,82.30
2022-11-04T13:55:35.415Z,81.61
2022-11-04T13:58:06.708Z,80.78
2022-11-04T14:00:35.758Z,80.69
2022-11-04T14:03:40.440Z,80.92
2022-11-04T14:06:11.289Z,80.22
2022-11-04T14:09:17.797Z,80.93
2022-11-04T14:12:24.366Z,79.64
2022-11-04T14:14:55.696Z,79.75
2022-11-04T14:17:58.325Z,79.92
2022-11-04T14:20:29.808Z,78.61
2022-11-04T14:23:00.052Z,78.51
2022-11-04T14:25:32.156Z,78.69
2022-11-04T14:28:02.917Z,79.22
2022-11-04T14:30:38.688Z,79.29
2022-11-04T14:33:10.193Z,78.66
2022-11-04T14:35:38.285Z,78.64
2022-11-04T14:38:26.027Z,79.11
2022-11-04T14:41:14.694Z,80.84
2022-11-04T14:43:46.069Z,81.01
2022-11-04T14:46:22.170Z,82.07
2022-11-04T14:48:56.247Z,81.48
2022-11-04T14:51:29.211Z,82.42
2022-11-04T14:54:05.776Z,83.38
2022-11-04T14:57:23.417Z,83.47
2022-11-04T14:59:53.857Z,84.58
2022-11-04T15:02:26.265Z,84.72
2022-11-04T15:04:58.703Z,85.51
2022-11-04T15:07:35.433Z,85.94
2022-11-04T15:10:05.366Z,86.47
2022-11-04T15:12:51.867Z,86.86
2022-11-04T15:15:37.293Z,87.39
2022-11-04T15:18:14.534Z,87.29
2022-11-04T15:20:49.431Z,86.92
2022-11-04T15:23:21.214Z,86.63
2022-11-04T15:25:51.310Z,86.97
2022-11-04T15:28:22.284Z,87.45
2022-11-04T15:31:00.571Z,88.22
2022-11-04T15:33:32.145Z,88.43
2022-11-04T15:36:01.451Z,88.16
2022-11-04T15:38:29.838Z,87.93
2022-11-04T15:41:20.489Z,88.20
2022-11-04T15:43:48.923Z,87.84
2022-11-04T15:46:21.576Z,88.25
2022-11-04T15:49:06.229Z,88.36
2022-11-04T15:51:40.414Z,88.57
2022-11-04T15:54:19.917Z,88.81
2022-11-04T15:56:52.456Z,88.65
2022-11-04T15:59:23.826Z,88.53
2022-11-04T16:01:53.713Z,89.68
2022-11-04T16:04:25.035Z,88.76
2022-11-04T16:07:23.230Z,89.64
2022-11-04T16:09:53.239Z,88.97
2022-11-04T16:12:31.318Z,90.43
2022-11-04T16:15:00.675Z,90.21
2022-11-04T16:17:30.768Z,89.55
2022-11-04T16:20:05.560Z,88.87
2022-11-04T16:22:37.219Z,89.59
2022-11-04T16:25:11.430Z,90.72
2022-11-04T16:27:40.305Z,89.93
2022-11-04T16:30:17.843Z,88.46
2022-11-04T16:32:48.361Z,90.83
2022-11-04T16:35:21.851Z,92.26
2022-11-04T16:37:51.191Z,94.12
2022-11-04T16:40:19.625Z,96.27
2022-11-04T16:42:50.833Z,97.46
2022-11-04T16:45:24.641Z,98.26
2022-11-04T16:48:30.041Z,95.64
2022-11-04T16:51:25.473Z,96.96
2022-11-04T16:53:55.823Z,97.02
2022-11-04T16:56:24.514Z,98.34
2022-11-04T16:58:52.827Z,99.99
2022-11-04T17:01:21.442Z,99.99
2022-11-04T17:03:49.863Z,99.99
2022-11-04T17:06:19.238Z,99.99
2022-11-04T17:08:48.584Z,99.99
2022-11-04T17:11:16.986Z,99.99
2022-11-04T17:13:45.360Z,99.99
2022-11-04T17:16:15.235Z,99.99
2022-11-04T17:18:43.586Z,99.99
2022-11-04T17:21:15.406Z,99.99
2022-11-04T17:23:43.382Z,99.99
2022-11-04T17:26:13.409Z,99.99
2022-11-04T17:28:42.489Z,99.99
2022-11-04T17:31:17.150Z,99.99
2022-11-04T17:33:46.074Z,99.99
2022-11-04T17:36:18.034Z,99.99
2022-11-04T17:38:47.335Z,99.99
2022-11-04T17:41:33.664Z,99.99
2022-11-04T17:44:02.545Z,99.99
2022-11-04T17:46:38.841Z,99.99
2022-11-04T17:49:12.422Z,99.99
2022-11-04T17:51:41.345Z,99.99
2022-11-04T17:54:09.475Z,99.99
2022-11-04T17:56:40.900Z,99.99
2022-11-04T17:59:09.761Z,99.99
2022-11-04T18:01:41.025Z,99.99
2022-11-04T18:04:09.379Z,99.99
2022-11-04T18:06:39.607Z,99.99
2022-11-04T18:09:11.549Z,99.99
2022-11-04T18:12:02.663Z,99.99
2022-11-04T18:14:31.563Z,99.99
2022-11-04T18:17:00.349Z,99.99
2022-11-04T18:19:28.881Z,99.99
2022-11-04T18:21:57.398Z,99.99
2022-11-04T18:24:25.594Z,99.99
2022-11-04T18:26:55.211Z,99.65
2022-11-04T18:29:23.926Z,99.69
2022-11-04T18:31:52.062Z,99.65
2022-11-04T18:34:20.438Z,99.99
2022-11-04T18:36:50.169Z,99.99
2022-11-04T18:39:19.741Z,99.99
2022-11-04T18:41:48.087Z,99.99
2022-11-04T18:44:20.756Z,99.99
2022-11-04T18:46:49.712Z,99.99
2022-11-04T18:49:18.732Z,99.99
2022-11-04T18:51:49.256Z,99.99
2022-11-04T18:54:17.258Z,99.99
2022-11-04T18:56:45.221Z,99.99
2022-11-04T18:59:15.885Z,99.99
2022-11-04T19:01:46.229Z,99.99
2022-11-04T19:04:15.229Z,99.99
2022-11-04T19:06:45.386Z,99.99
2022-11-04T19:12:22.637Z,99.99
2022-11-04T19:14:50.971Z,99.99
2022-11-04T19:17:21.154Z,99.99
2022-11-04T19:19:49.820Z,99.99
2022-11-04T19:22:17.954Z,99.99
2022-11-04T19:24:46.031Z,99.99
2022-11-04T19:27:14.926Z,99.99
2022-11-04T19:29:42.938Z,99.99
2022-11-04T19:32:14.365Z,99.99
2022-11-04T19:34:44.575Z,99.99
2022-11-04T19:37:14.240Z,99.99
2022-11-04T19:39:42.328Z,99.99
2022-11-04T19:42:29.167Z,99.99
2022-11-04T19:44:57.689Z,99.99
2022-11-04T19:47:25.689Z,99.99
2022-11-04T19:49:56.848Z,99.99
2022-11-04T19:52:24.884Z,99.99
2022-11-04T19:54:53.872Z,99.99
2022-11-04T19:57:22.269Z,99.99
2022-11-04T19:59:54.097Z,99.99
2022-11-04T20:02:56.109Z,99.99
2022-11-04T20:05:42.070Z,99.99
2022-11-04T20:08:45.477Z,99.99
2022-11-04T20:11:23.196Z,99.99
2022-11-04T20:13:52.158Z,99.99
2022-11-04T20:16:25.417Z,99.99
2022-11-04T20:18:57.099Z,99.99
2022-11-04T20:21:28.406Z,99.99
2022-11-04T20:24:17.796Z,99.99
2022-11-04T20:26:46.778Z,99.99
2022-11-04T20:29:17.209Z,99.99
2022-11-04T20:31:45.980Z,99.99
2022-11-04T20:34:15.342Z,99.99
2022-11-04T20:36:44.985Z,99.99
2022-11-04T20:39:16.866Z,99.99
2022-11-04T20:41:45.909Z,99.99
2022-11-04T20:44:15.061Z,99.99
2022-11-04T20:46:44.811Z,99.99
2022-11-04T20:49:13.364Z,99.99
2022-11-04T20:51:48.757Z,99.99
2022-11-04T20:54:18.357Z,99.99
2022-11-04T20:56:47.261Z,99.99
2022-11-04T20:59:16.788Z,99.99
2022-11-04T21:01:48.887Z,99.99
2022-11-04T21:04:20.594Z,99.99
2022-11-04T21:06:51.939Z,99.99
2022-11-04T21:09:21.933Z,99.99
2022-11-04T21:11:51.790Z,99.99
2022-11-04T21:14:20.724Z,99.99
2022-11-04T21:16:49.274Z,99.99
2022-11-04T21:19:17.852Z,99.99
2022-11-04T21:21:47.038Z,99.99
2022-11-04T21:24:18.229Z,99.99
2022-11-04T21:26:47.194Z,99.99
2022-11-04T21:29:16.969Z,99.99
2022-11-04T21:31:47.201Z,99.99
2022-11-04T21:34:15.171Z,99.99
2022-11-04T21:36:43.447Z,99.99
2022-11-04T21:39:13.543Z,99.99
2022-11-04T21:41:42.900Z,99.99
2022-11-04T21:44:13.813Z,99.99
2022-11-04T21:46:42.639Z,99.99
2022-11-04T21:49:13.635Z,99.99
2022-11-04T21:51:41.600Z,99.99
2022-11-04T21:54:09.508Z,99.99
2022-11-04T21:56:38.295Z,99.99
2022-11-04T21:59:07.679Z,99.99
2022-11-04T22:01:36.083Z,99.99
2022-11-04T22:04:04.820Z,99.99
2022-11-04T22:06:35.486Z,99.99
2022-11-04T22:09:05.991Z,99.99
2022-11-04T22:11:36.550Z,99.99
2022-11-04T22:14:08.613Z,99.99
2022-11-04T22:16:38.975Z,99.99
2022-11-04T22:19:10.656Z,99.99
2022-11-04T22:21:41.168Z,99.99
2022-11-04T22:24:11.692Z,99.99
2022-11-04T22:26:40.048Z,99.99
2022-11-04T22:29:10.074Z,99.99
2022-11-04T22:31:41.348Z,99.99
2022-11-04T22:34:09.687Z,99.99
2022-11-04T22:36:38.380Z,99.99
2022-11-04T22:39:10.486Z,99.99
2022-11-04T22:41:43.002Z,99.99
2022-11-04T22:44:12.205Z,99.99
2022-11-04T22:46:40.492Z,99.99
2022-11-04T22:49:09.025Z,99.99
2022-11-04T22:51:37.060Z,99.99
2022-11-04T22:54:08.561Z,99.99
2022-11-04T22:56:38.204Z,99.99
2022-11-04T22:59:06.400Z,99.99
2022-11-04T23:01:35.891Z,99.99
2022-11-04T23:04:03.985Z,99.99
2022-11-04T23:06:32.601Z,99.99
2022-11-04T23:09:01.386Z,99.99
2022-11-04T23:11:47.598Z,99.99
2022-11-04T23:14:50.108Z,99.99
2022-11-04T23:17:38.776Z,99.99
2022-11-04T23:20:10.063Z,99.99
2022-11-04T23:22:55.833Z,99.99
2022-11-04T23:25:24.615Z,99.99
2022-11-04T23:28:12.325Z,99.99
2022-11-04T23:30:43.430Z,99.99
2022-11-04T23:33:15.088Z,99.99
2022-11-04T23:36:03.338Z,99.99
2022-11-04T23:38:31.617Z,99.99
2022-11-04T23:41:19.444Z,99.99
2022-11-04T23:43:48.369Z,99.99
2022-11-04T23:46:41.132Z,99.99
2022-11-04T23:49:30.138Z,99.99
2022-11-04T23:52:16.401Z,99.99
2022-11-04T23:55:01.623Z,99.99
2022-11-04T23:57:44.341Z,99.99
